createdAt,value
2019-04-21T00:00:25.826Z,24.35
2019-04-21T00:02:55.407Z,24.38
2019-04-21T00:05:49.906Z,24.37
2019-04-21T00:08:27.798Z,24.29
2019-04-21T00:10:51.336Z,24.33
2019-04-21T00:13:12.510Z,24.46
2019-04-21T00:15:33.551Z,24.54
2019-04-21T00:18:08.864Z,24.38
2019-04-21T00:20:44.196Z,24.26
2019-04-21T00:23:24.250Z,24.48
2019-04-21T00:25:49.891Z,23.98
2019-04-21T00:28:30.336Z,23.67
2019-04-21T00:30:55.504Z,23.48
2019-04-21T00:33:15.785Z,23.62
2019-04-21T00:35:45.401Z,24.15
2019-04-21T00:38:32.153Z,24.27
2019-04-21T00:41:01.632Z,24.01
2019-04-21T00:43:28.023Z,24.01
2019-04-21T00:45:51.925Z,24.03
2019-04-21T00:48:34.407Z,23.68
2019-04-21T00:51:18.431Z,23.91
2019-04-21T00:53:45.133Z,23.84
2019-04-21T00:56:13.499Z,23.85
2019-04-21T00:58:42.260Z,23.79
2019-04-21T01:01:09.026Z,24.05
2019-04-21T01:03:41.139Z,24.11
2019-04-21T01:06:09.750Z,24.30
2019-04-21T01:08:35.673Z,24.13
2019-04-21T01:11:01.472Z,24.38
2019-04-21T01:13:42.602Z,24.54
2019-04-21T01:16:14.117Z,23.87
2019-04-21T01:18:39.441Z,23.69
2019-04-21T01:20:49.711Z,24.12
2019-04-21T01:23:19.221Z,24.11
2019-04-21T01:26:00.812Z,24.23
2019-04-21T01:28:36.245Z,24.20
2019-04-21T01:31:08.783Z,23.79
2019-04-21T01:36:11.353Z,23.83
2019-04-21T01:38:40.252Z,23.94
2019-04-21T01:41:16.164Z,23.82
2019-04-21T01:43:39.446Z,23.70
2019-04-21T01:46:09.295Z,23.69
2019-04-21T01:48:36.772Z,23.64
2019-04-21T01:51:07.575Z,23.81
2019-04-21T01:53:48.606Z,23.34
2019-04-21T01:56:29.257Z,23.31
2019-04-21T01:58:46.293Z,23.90
2019-04-21T02:01:28.444Z,23.52
2019-04-21T02:03:58.397Z,23.62
2019-04-21T02:06:27.589Z,23.20
2019-04-21T02:09:02.225Z,23.32
2019-04-21T02:11:31.041Z,22.50
2019-04-21T02:14:05.966Z,22.02
2019-04-21T02:16:32.752Z,22.25
2019-04-21T02:18:56.776Z,22.33
2019-04-21T02:21:24.031Z,22.67
2019-04-21T02:24:05.353Z,21.87
2019-04-21T02:26:33.595Z,22.25
2019-04-21T02:29:03.283Z,22.24
2019-04-21T02:34:09.130Z,22.38
2019-04-21T02:37:14.392Z,21.91
2019-04-21T02:39:16.454Z,21.67
2019-04-21T02:41:55.866Z,21.21
2019-04-21T02:44:30.000Z,21.39
2019-04-21T02:46:46.682Z,20.85
2019-04-21T02:49:38.162Z,21.11
2019-04-21T02:54:45.886Z,21.70
2019-04-21T02:56:51.494Z,21.64
2019-04-21T02:59:24.321Z,21.26
2019-04-21T03:02:17.097Z,21.63
2019-04-21T03:10:09.484Z,20.83
2019-04-21T03:14:56.025Z,21.43
2019-04-21T03:17:22.329Z,21.25
2019-04-21T03:22:20.828Z,21.16
2019-04-21T03:25:04.646Z,20.88
2019-04-21T03:29:54.380Z,20.81
2019-04-21T03:32:50.599Z,20.82
2019-04-21T03:37:23.291Z,20.21
2019-04-21T03:39:51.835Z,20.91
2019-04-21T03:49:56.354Z,20.16
2019-04-21T03:52:36.104Z,19.80
2019-04-21T03:55:41.421Z,19.52
2019-04-21T04:00:33.609Z,19.15
2019-04-21T04:03:07.592Z,19.71
2019-04-21T04:08:44.751Z,19.26
2019-04-21T04:11:19.595Z,19.32
2019-04-21T04:13:37.699Z,18.99
2019-04-21T04:18:46.187Z,18.70
2019-04-21T04:21:12.214Z,18.80
2019-04-21T04:31:06.139Z,18.78
2019-04-21T04:36:15.584Z,18.50
2019-04-21T04:38:41.662Z,18.52
2019-04-21T04:41:15.903Z,18.84
2019-04-21T04:43:36.289Z,19.00
2019-04-21T04:48:34.909Z,18.84
2019-04-21T04:53:47.397Z,19.22
2019-04-21T04:56:12.338Z,19.10
2019-04-21T04:58:59.508Z,19.24
2019-04-21T05:01:24.578Z,18.90
2019-04-21T05:11:44.523Z,19.32
2019-04-21T05:14:03.355Z,18.93
2019-04-21T05:16:36.637Z,18.79
2019-04-21T05:19:04.160Z,19.33
2019-04-21T05:21:29.965Z,19.24
2019-04-21T05:23:44.084Z,18.92
2019-04-21T05:26:09.899Z,19.21
2019-04-21T05:28:42.064Z,19.13
2019-04-21T05:31:25.447Z,19.22
2019-04-21T05:33:59.069Z,19.15
2019-04-21T05:36:30.916Z,19.05
2019-04-21T05:39:12.024Z,18.94
2019-04-21T05:41:34.841Z,18.31
2019-04-21T05:44:19.277Z,18.28
2019-04-21T05:47:04.885Z,18.33
2019-04-21T05:49:14.102Z,17.86
2019-04-21T05:51:57.431Z,17.77
2019-04-21T05:54:39.051Z,18.32
2019-04-21T05:56:59.763Z,17.63
2019-04-21T05:59:32.309Z,17.31
2019-04-21T06:02:13.970Z,17.46
2019-04-21T06:04:48.119Z,17.52
2019-04-21T06:07:13.299Z,17.31
2019-04-21T06:09:38.155Z,17.35
2019-04-21T06:12:10.083Z,17.01
2019-04-21T06:14:45.290Z,17.64
2019-04-21T06:17:17.502Z,16.89
2019-04-21T06:19:45.039Z,17.24
2019-04-21T06:22:10.444Z,17.12
2019-04-21T06:24:45.577Z,16.72
2019-04-21T06:27:13.428Z,16.79
2019-04-21T06:29:36.464Z,17.17
2019-04-21T06:35:04.442Z,16.93
2019-04-21T06:37:34.816Z,17.23
2019-04-21T06:39:51.601Z,17.44
2019-04-21T06:42:09.149Z,17.19
2019-04-21T06:44:48.452Z,17.44
2019-04-21T06:47:17.647Z,17.32
2019-04-21T06:49:36.945Z,17.50
2019-04-21T06:52:29.907Z,17.11
2019-04-21T06:55:03.546Z,17.36
2019-04-21T06:57:16.933Z,16.89
2019-04-21T06:59:39.050Z,17.25
2019-04-21T07:02:32.132Z,16.98
2019-04-21T07:04:43.384Z,17.67
2019-04-21T07:07:14.525Z,17.16
2019-04-21T07:09:48.281Z,17.01
2019-04-21T07:12:13.785Z,16.86
2019-04-21T07:14:44.090Z,17.06
2019-04-21T07:17:19.919Z,16.66
2019-04-21T07:19:49.899Z,16.45
2019-04-21T07:22:19.578Z,16.65
2019-04-21T07:24:43.349Z,16.44
2019-04-21T07:27:17.476Z,17.01
2019-04-21T07:29:47.511Z,16.91
2019-04-21T07:32:15.329Z,16.93
2019-04-21T07:34:47.634Z,16.93
2019-04-21T07:37:13.934Z,16.84
2019-04-21T07:39:45.158Z,17.05
2019-04-21T07:42:13.284Z,16.86
2019-04-21T07:44:40.832Z,17.14
2019-04-21T07:47:17.075Z,17.16
2019-04-21T07:49:53.076Z,17.21
2019-04-21T07:52:28.243Z,16.88
2019-04-21T07:55:07.991Z,16.51
2019-04-21T07:57:18.748Z,16.63
2019-04-21T08:00:09.857Z,16.17
2019-04-21T08:02:27.588Z,16.02
2019-04-21T08:05:02.656Z,15.91
2019-04-21T08:07:38.285Z,16.62
2019-04-21T08:09:51.481Z,15.55
2019-04-21T08:12:20.068Z,16.04
2019-04-21T08:15:03.172Z,16.21
2019-04-21T08:17:23.466Z,16.32
2019-04-21T08:19:57.716Z,15.34
2019-04-21T08:22:35.135Z,15.36
2019-04-21T08:24:56.157Z,15.35
2019-04-21T08:27:35.424Z,14.24
2019-04-21T08:29:58.284Z,15.23
2019-04-21T08:32:38.468Z,15.21
2019-04-21T08:35:22.446Z,14.53
2019-04-21T08:37:31.273Z,14.62
2019-04-21T08:40:23.444Z,14.29
2019-04-21T08:42:30.450Z,14.23
2019-04-21T08:45:05.613Z,14.41
2019-04-21T08:47:33.077Z,13.87
2019-04-21T08:50:00.695Z,13.60
2019-04-21T08:52:50.977Z,14.29
2019-04-21T08:55:12.466Z,13.66
2019-04-21T08:58:15.218Z,14.30
2019-04-21T09:00:41.399Z,14.30
2019-04-21T09:03:06.775Z,13.70
2019-04-21T09:05:40.379Z,13.83
2019-04-21T09:08:12.857Z,13.09
2019-04-21T09:10:44.433Z,12.87
2019-04-21T09:13:04.300Z,12.87
2019-04-21T09:15:34.994Z,13.86
2019-04-21T09:18:05.364Z,13.47
2019-04-21T09:20:47.093Z,13.12
2019-04-21T09:23:06.407Z,13.26
2019-04-21T09:25:58.769Z,13.18
2019-04-21T09:28:04.019Z,13.18
2019-04-21T09:30:23.978Z,13.21
2019-04-21T09:32:56.093Z,13.29
2019-04-21T09:35:24.093Z,13.30
2019-04-21T09:38:00.568Z,12.51
2019-04-21T09:40:31.331Z,12.29
2019-04-21T09:42:59.473Z,12.41
2019-04-21T09:45:24.451Z,12.78
2019-04-21T09:48:01.683Z,12.91
2019-04-21T09:50:24.294Z,13.15
2019-04-21T09:52:57.885Z,12.15
2019-04-21T09:55:26.579Z,12.97
2019-04-21T09:57:56.997Z,12.76
2019-04-21T10:00:27.199Z,12.68
2019-04-21T10:03:00.583Z,13.73
2019-04-21T10:05:25.167Z,13.50
2019-04-21T10:07:55.146Z,12.89
2019-04-21T10:10:25.174Z,13.36
2019-04-21T10:12:54.003Z,13.24
2019-04-21T10:15:24.845Z,13.36
2019-04-21T10:18:06.386Z,13.36
2019-04-21T10:20:36.064Z,13.85
2019-04-21T10:23:05.068Z,13.85
2019-04-21T10:25:34.554Z,13.59
2019-04-21T10:28:03.348Z,13.80
2019-04-21T10:30:32.927Z,14.01
2019-04-21T10:33:01.576Z,13.65
2019-04-21T10:35:31.039Z,13.79
2019-04-21T10:38:13.654Z,13.45
2019-04-21T10:40:32.594Z,14.01
2019-04-21T10:43:01.133Z,13.62
2019-04-21T10:45:30.833Z,13.72
2019-04-21T10:48:00.834Z,13.53
2019-04-21T10:50:29.672Z,13.16
2019-04-21T10:53:03.004Z,13.91
2019-04-21T10:55:53.280Z,13.78
2019-04-21T10:58:16.300Z,13.96
2019-04-21T11:00:46.500Z,13.24
2019-04-21T11:03:35.275Z,13.43
2019-04-21T11:06:08.632Z,13.22
2019-04-21T11:08:43.346Z,13.39
2019-04-21T11:11:08.263Z,13.21
2019-04-21T11:13:37.058Z,12.36
2019-04-21T11:16:05.776Z,13.01
2019-04-21T11:18:35.744Z,12.84
2019-04-21T11:21:04.942Z,12.60
2019-04-21T11:23:33.587Z,11.43
2019-04-21T11:26:02.337Z,11.65
2019-04-21T11:28:31.214Z,12.82
2019-04-21T11:31:00.554Z,12.62
2019-04-21T11:33:29.316Z,11.85
2019-04-21T11:35:59.090Z,11.91
2019-04-21T11:38:35.513Z,12.32
2019-04-21T11:41:03.476Z,11.95
2019-04-21T11:43:32.896Z,11.48
2019-04-21T11:46:02.598Z,11.69
2019-04-21T11:48:32.393Z,12.22
2019-04-21T11:51:01.406Z,11.42
2019-04-21T11:53:30.744Z,11.75
2019-04-21T11:56:00.781Z,11.84
2019-04-21T11:58:29.856Z,11.79
2019-04-21T12:01:00.326Z,11.11
2019-04-21T12:03:29.471Z,11.26
2019-04-21T12:05:59.461Z,10.94
2019-04-21T12:08:35.097Z,11.43
2019-04-21T12:10:59.761Z,11.65
2019-04-21T12:13:29.920Z,11.36
2019-04-21T12:15:59.026Z,11.01
2019-04-21T12:18:29.732Z,10.70
2019-04-21T12:20:57.955Z,11.31
2019-04-21T12:23:26.873Z,11.08
2019-04-21T12:25:56.838Z,11.39
2019-04-21T12:28:25.871Z,11.45
2019-04-21T12:30:55.801Z,11.05
2019-04-21T12:33:38.196Z,11.38
2019-04-21T12:36:07.127Z,10.68
2019-04-21T12:38:44.720Z,10.83
2019-04-21T12:41:06.613Z,10.66
2019-04-21T12:43:35.163Z,10.01
2019-04-21T12:46:04.319Z,9.85
2019-04-21T12:48:33.772Z,9.94
2019-04-21T12:51:03.770Z,9.53
2019-04-21T12:53:33.835Z,9.73
2019-04-21T12:56:02.509Z,9.53
2019-04-21T12:58:31.190Z,9.34
2019-04-21T13:03:28.705Z,9.59
2019-04-21T13:05:58.014Z,10.20
2019-04-21T13:08:27.149Z,10.08
2019-04-21T13:10:56.135Z,10.13
2019-04-21T13:13:26.034Z,9.60
2019-04-21T13:15:55.774Z,8.81
2019-04-21T13:18:24.326Z,9.47
2019-04-21T13:20:54.029Z,9.81
2019-04-21T13:23:23.080Z,9.68
2019-04-21T13:25:52.044Z,10.39
2019-04-21T13:28:20.801Z,10.76
2019-04-21T13:30:50.645Z,9.60
2019-04-21T13:33:20.884Z,10.32
2019-04-21T13:35:50.903Z,9.73
2019-04-21T13:38:29.374Z,10.30
2019-04-21T13:41:15.017Z,10.34
2019-04-21T13:43:27.494Z,10.34
2019-04-21T13:45:57.388Z,10.62
2019-04-21T13:48:26.492Z,10.47
2019-04-21T13:50:55.376Z,10.71
2019-04-21T13:53:24.999Z,10.87
2019-04-21T13:55:53.540Z,10.80
2019-04-21T13:58:22.171Z,11.22
2019-04-21T14:00:52.393Z,11.29
2019-04-21T14:03:23.066Z,11.06
2019-04-21T14:05:51.299Z,11.70
2019-04-21T14:08:21.054Z,12.27
2019-04-21T14:10:49.622Z,12.17
2019-04-21T14:13:18.507Z,12.08
2019-04-21T14:15:49.743Z,11.69
2019-04-21T14:18:18.506Z,11.54
2019-04-21T14:20:47.097Z,11.92
2019-04-21T14:23:25.528Z,12.40
2019-04-21T14:25:46.245Z,11.83
2019-04-21T14:28:15.630Z,12.06
2019-04-21T14:30:44.540Z,12.20
2019-04-21T14:33:14.184Z,12.17
2019-04-21T14:35:43.032Z,12.41
2019-04-21T14:38:11.596Z,12.50
2019-04-21T14:40:40.082Z,12.12
2019-04-21T14:43:10.151Z,11.87
2019-04-21T14:45:40.821Z,11.81
2019-04-21T14:48:23.287Z,11.99
2019-04-21T14:51:06.538Z,12.39
2019-04-21T14:53:53.948Z,12.41
2019-04-21T14:56:22.493Z,12.71
2019-04-21T14:58:51.233Z,12.81
2019-04-21T15:01:19.896Z,12.57
2019-04-21T15:03:49.923Z,12.15
2019-04-21T15:06:19.025Z,12.42
2019-04-21T15:08:49.081Z,13.02
2019-04-21T15:11:18.053Z,12.80
2019-04-21T15:13:47.998Z,12.49
2019-04-21T15:16:16.611Z,12.39
2019-04-21T15:18:46.457Z,12.64
2019-04-21T15:21:15.338Z,13.21
2019-04-21T15:23:44.661Z,13.01
2019-04-21T15:26:14.354Z,13.06
2019-04-21T15:28:42.860Z,12.35
2019-04-21T15:31:12.706Z,12.74
2019-04-21T15:33:41.657Z,13.37
2019-04-21T15:36:11.263Z,12.62
2019-04-21T15:38:40.189Z,12.93
2019-04-21T15:41:10.701Z,12.88
2019-04-21T15:43:38.898Z,13.30
2019-04-21T15:46:08.757Z,13.26
2019-04-21T15:48:37.376Z,13.14
2019-04-21T15:51:08.646Z,13.38
2019-04-21T15:53:37.937Z,13.34
2019-04-21T15:56:11.265Z,13.94
2019-04-21T15:58:42.812Z,13.43
2019-04-21T16:01:18.823Z,13.48
2019-04-21T16:03:47.371Z,13.64
2019-04-21T16:06:17.371Z,14.01
2019-04-21T16:08:47.639Z,13.79
2019-04-21T16:11:16.103Z,13.65
2019-04-21T16:13:45.959Z,13.68
2019-04-21T16:16:14.720Z,13.76
2019-04-21T16:18:43.254Z,13.87
2019-04-21T16:21:11.879Z,14.16
2019-04-21T16:23:40.579Z,14.22
2019-04-21T16:26:10.768Z,14.23
2019-04-21T16:28:39.635Z,14.50
2019-04-21T16:31:08.112Z,13.98
2019-04-21T16:33:36.889Z,14.17
2019-04-21T16:36:08.210Z,14.31
2019-04-21T16:38:35.785Z,14.09
2019-04-21T16:41:08.152Z,14.37
2019-04-21T16:43:35.419Z,14.50
2019-04-21T16:46:04.659Z,14.31
2019-04-21T16:48:33.755Z,14.19
2019-04-21T16:51:03.583Z,14.17
2019-04-21T16:53:39.826Z,14.01
2019-04-21T16:56:15.486Z,14.15
2019-04-21T16:58:48.487Z,14.96
2019-04-21T17:01:29.588Z,14.25
2019-04-21T17:03:58.278Z,14.26
2019-04-21T17:06:27.171Z,14.27
2019-04-21T17:08:56.777Z,14.27
2019-04-21T17:11:30.387Z,14.41
2019-04-21T17:13:56.687Z,14.44
2019-04-21T17:17:03.837Z,14.31
2019-04-21T17:19:05.311Z,14.07
2019-04-21T17:21:28.146Z,14.07
2019-04-21T17:23:56.905Z,14.17
2019-04-21T17:26:26.806Z,14.46
2019-04-21T17:28:56.602Z,14.46
2019-04-21T17:31:26.529Z,14.41
2019-04-21T17:34:02.012Z,14.47
2019-04-21T17:36:25.420Z,14.47
2019-04-21T17:38:54.305Z,14.47
2019-04-21T17:41:32.693Z,15.22
2019-04-21T17:43:54.429Z,15.22
2019-04-21T17:46:34.519Z,15.49
2019-04-21T17:48:53.157Z,14.71
2019-04-21T17:51:32.082Z,14.42
2019-04-21T17:54:13.631Z,14.42
2019-04-21T17:56:59.495Z,15.01
2019-04-21T17:59:41.580Z,14.99
2019-04-21T18:01:53.401Z,15.35
2019-04-21T18:04:28.953Z,15.11
2019-04-21T18:06:58.174Z,15.03
2019-04-21T18:09:44.055Z,15.09
2019-04-21T18:12:05.526Z,15.18
2019-04-21T18:14:18.986Z,15.26
2019-04-21T18:16:48.661Z,15.36
2019-04-21T18:19:20.567Z,15.31
2019-04-21T18:22:03.882Z,15.39
2019-04-21T18:24:40.616Z,15.39
2019-04-21T18:27:06.001Z,15.88
2019-04-21T18:29:33.931Z,15.84
2019-04-21T18:32:02.837Z,16.07
2019-04-21T18:34:44.291Z,15.56
2019-04-21T18:37:14.739Z,15.31
2019-04-21T18:40:00.056Z,15.30
2019-04-21T18:42:37.529Z,15.39
2019-04-21T18:45:38.736Z,15.39
2019-04-21T18:47:58.499Z,15.50
2019-04-21T18:50:16.406Z,15.79
2019-04-21T18:53:02.029Z,15.29
2019-04-21T18:55:27.867Z,15.01
2019-04-21T18:57:50.956Z,15.17
2019-04-21T19:00:24.351Z,15.54
2019-04-21T19:02:52.386Z,15.78
2019-04-21T19:05:22.631Z,15.87
2019-04-21T19:08:05.685Z,15.57
2019-04-21T19:10:45.710Z,16.12
2019-04-21T19:13:28.237Z,16.26
2019-04-21T19:15:42.543Z,16.37
2019-04-21T19:18:32.528Z,16.29
2019-04-21T19:20:39.405Z,15.57
2019-04-21T19:23:12.562Z,15.30
2019-04-21T19:25:41.360Z,15.61
2019-04-21T19:28:06.490Z,15.69
2019-04-21T19:30:50.702Z,15.57
2019-04-21T19:33:10.118Z,15.58
2019-04-21T19:35:27.564Z,14.81
2019-04-21T19:38:01.170Z,15.30
2019-04-21T19:40:41.421Z,15.52
2019-04-21T19:43:07.005Z,15.42
2019-04-21T19:45:38.070Z,15.86
2019-04-21T19:48:12.211Z,16.00
2019-04-21T19:50:47.079Z,16.17
2019-04-21T19:53:06.237Z,15.89
2019-04-21T19:55:28.306Z,16.14
2019-04-21T19:57:56.827Z,16.19
2019-04-21T20:00:26.592Z,15.97
2019-04-21T20:02:56.354Z,16.20
2019-04-21T20:05:35.266Z,16.13
2019-04-21T20:08:12.916Z,16.44
2019-04-21T20:10:44.330Z,16.75
2019-04-21T20:13:28.367Z,16.55
2019-04-21T20:15:44.779Z,16.79
2019-04-21T20:18:10.107Z,17.31
2019-04-21T20:20:26.968Z,17.58
2019-04-21T20:22:57.154Z,17.67
2019-04-21T20:25:27.292Z,17.32
2019-04-21T20:28:05.465Z,17.18
2019-04-21T20:30:42.316Z,17.20
2019-04-21T20:33:39.744Z,17.41
2019-04-21T20:35:52.063Z,17.49
2019-04-21T20:38:13.888Z,17.55
2019-04-21T20:40:36.267Z,17.96
2019-04-21T20:43:17.717Z,18.09
2019-04-21T20:45:46.877Z,18.13
2019-04-21T20:48:07.235Z,17.86
2019-04-21T20:50:43.483Z,17.56
2019-04-21T20:53:17.626Z,17.22
2019-04-21T20:55:44.176Z,17.36
2019-04-21T20:58:09.193Z,17.82
2019-04-21T21:00:55.843Z,17.86
2019-04-21T21:03:23.158Z,18.06
2019-04-21T21:05:45.006Z,17.79
2019-04-21T21:08:25.934Z,17.84
2019-04-21T21:10:49.252Z,17.84
2019-04-21T21:13:26.616Z,18.19
2019-04-21T21:16:01.189Z,18.22
2019-04-21T21:18:38.529Z,18.20
2019-04-21T21:20:49.409Z,18.31
2019-04-21T21:23:15.879Z,18.37
2019-04-21T21:25:50.949Z,18.30
2019-04-21T21:28:10.123Z,18.59
2019-04-21T21:30:43.154Z,18.55
2019-04-21T21:33:22.501Z,18.56
2019-04-21T21:35:42.478Z,18.90
2019-04-21T21:38:28.101Z,18.95
2019-04-21T21:40:49.633Z,19.11
2019-04-21T21:43:08.145Z,19.26
2019-04-21T21:45:42.527Z,19.47
2019-04-21T21:48:21.939Z,19.29
2019-04-21T21:50:47.010Z,19.53
2019-04-21T21:53:13.540Z,19.88
2019-04-21T21:55:38.607Z,20.01
2019-04-21T21:58:08.496Z,20.18
2019-04-21T22:00:42.948Z,20.47
2019-04-21T22:03:18.848Z,20.76
2019-04-21T22:05:47.546Z,20.74
2019-04-21T22:08:10.164Z,20.84
2019-04-21T22:10:39.180Z,20.91
2019-04-21T22:13:12.813Z,21.24
2019-04-21T22:15:39.529Z,21.41
2019-04-21T22:18:25.910Z,21.61
2019-04-21T22:20:55.090Z,21.52
2019-04-21T22:23:13.345Z,21.49
2019-04-21T22:25:41.771Z,21.80
2019-04-21T22:28:09.660Z,21.86
2019-04-21T22:30:42.723Z,21.92
2019-04-21T22:33:12.342Z,22.22
2019-04-21T22:35:48.895Z,22.13
2019-04-21T22:38:25.675Z,22.12
2019-04-21T22:40:50.635Z,22.25
2019-04-21T22:43:19.483Z,22.47
2019-04-21T22:45:41.097Z,22.80
2019-04-21T22:48:15.564Z,22.96
2019-04-21T22:50:40.683Z,23.01
2019-04-21T22:53:10.607Z,22.86
2019-04-21T22:55:40.850Z,22.86
2019-04-21T22:58:09.683Z,22.94
2019-04-21T23:00:44.668Z,23.08
2019-04-21T23:03:13.620Z,23.39
2019-04-21T23:05:41.715Z,22.61
2019-04-21T23:08:10.933Z,22.38
2019-04-21T23:10:41.470Z,22.31
2019-04-21T23:13:15.673Z,22.43
2019-04-21T23:15:46.157Z,21.93
2019-04-21T23:18:25.948Z,22.49
2019-04-21T23:20:57.758Z,22.72
2019-04-21T23:23:29.690Z,22.28
2019-04-21T23:25:56.045Z,22.82
2019-04-21T23:28:30.424Z,22.83
2019-04-21T23:31:05.600Z,23.04
2019-04-21T23:33:15.735Z,23.10
2019-04-21T23:35:45.646Z,22.92
2019-04-21T23:38:12.917Z,22.54
2019-04-21T23:40:51.167Z,22.73
2019-04-21T23:43:18.763Z,22.49
2019-04-21T23:45:44.832Z,22.96
2019-04-21T23:48:27.140Z,23.18
2019-04-21T23:50:51.369Z,23.03
2019-04-21T23:53:13.757Z,23.00
2019-04-21T23:55:43.375Z,23.16
2019-04-21T23:58:18.688Z,23.33
